sensor_id;sensor_type;location;lat;lon;timestamp;P1;durP1;ratioP1;P2;durP2;ratioP2
72864;SDS011;61000;48.120;11.548;2023-04-08T00:02:13;11.20;;;8.32;;
72864;SDS011;61000;48.120;11.548;2023-04-08T00:04:40;12.82;;;8.93;;
72864;SDS011;61000;48.120;11.548;2023-04-08T00:07:07;12.98;;;8.98;;
72864;SDS011;61000;48.120;11.548;2023-04-08T00:09:34;10.90;;;7.95;;
72864;SDS011;61000;48.120;11.548;2023-04-08T00:12:01;10.88;;;7.75;;
72864;SDS011;61000;48.120;11.548;2023-04-08T00:14:29;11.27;;;8.43;;
72864;SDS011;61000;48.120;11.548;2023-04-08T00:16:56;11.52;;;8.05;;
72864;SDS011;61000;48.120;11.548;2023-04-08T00:19:23;10.65;;;8.38;;
72864;SDS011;61000;48.120;11.548;2023-04-08T00:21:50;10.63;;;8.07;;
72864;SDS011;61000;48.120;11.548;2023-04-08T00:24:17;12.05;;;7.65;;
72864;SDS011;61000;48.120;11.548;2023-04-08T00:26:44;8.75;;;7.45;;
72864;SDS011;61000;48.120;11.548;2023-04-08T00:29:11;11.77;;;7.82;;
72864;SDS011;61000;48.120;11.548;2023-04-08T00:31:40;9.63;;;7.20;;
72864;SDS011;61000;48.120;11.548;2023-04-08T00:34:07;10.75;;;7.70;;
72864;SDS011;61000;48.120;11.548;2023-04-08T00:36:34;12.18;;;8.02;;
72864;SDS011;61000;48.120;11.548;2023-04-08T00:39:01;8.82;;;7.10;;
72864;SDS011;61000;48.120;11.548;2023-04-08T00:41:32;11.73;;;7.53;;
72864;SDS011;61000;48.120;11.548;2023-04-08T00:43:59;10.55;;;6.97;;
72864;SDS011;61000;48.120;11.548;2023-04-08T00:46:26;10.50;;;7.85;;
72864;SDS011;61000;48.120;11.548;2023-04-08T00:48:55;10.52;;;7.20;;
72864;SDS011;61000;48.120;11.548;2023-04-08T00:51:22;8.75;;;6.88;;
72864;SDS011;61000;48.120;11.548;2023-04-08T00:53:49;8.93;;;7.45;;
72864;SDS011;61000;48.120;11.548;2023-04-08T00:56:15;10.00;;;7.25;;
72864;SDS011;61000;48.120;11.548;2023-04-08T00:58:42;12.23;;;7.57;;
72864;SDS011;61000;48.120;11.548;2023-04-08T01:01:11;10.88;;;7.80;;
72864;SDS011;61000;48.120;11.548;2023-04-08T01:03:46;11.93;;;7.38;;
72864;SDS011;61000;48.120;11.548;2023-04-08T01:06:34;9.27;;;7.18;;
72864;SDS011;61000;48.120;11.548;2023-04-08T01:09:06;9.57;;;7.90;;
72864;SDS011;61000;48.120;11.548;2023-04-08T01:11:34;9.27;;;7.20;;
72864;SDS011;61000;48.120;11.548;2023-04-08T01:14:04;10.85;;;7.50;;
72864;SDS011;61000;48.120;11.548;2023-04-08T01:16:34;10.27;;;6.53;;
72864;SDS011;61000;48.120;11.548;2023-04-08T01:19:03;10.02;;;7.20;;
72864;SDS011;61000;48.120;11.548;2023-04-08T01:21:35;8.60;;;6.97;;
72864;SDS011;61000;48.120;11.548;2023-04-08T01:24:04;10.60;;;7.05;;
72864;SDS011;61000;48.120;11.548;2023-04-08T01:26:36;10.85;;;7.10;;
72864;SDS011;61000;48.120;11.548;2023-04-08T01:29:04;9.48;;;7.03;;
72864;SDS011;61000;48.120;11.548;2023-04-08T01:31:32;10.77;;;7.55;;
72864;SDS011;61000;48.120;11.548;2023-04-08T01:34:02;10.60;;;7.43;;
72864;SDS011;61000;48.120;11.548;2023-04-08T01:36:31;9.73;;;7.35;;
72864;SDS011;61000;48.120;11.548;2023-04-08T01:39:00;9.90;;;7.30;;
72864;SDS011;61000;48.120;11.548;2023-04-08T01:41:29;9.27;;;6.70;;
72864;SDS011;61000;48.120;11.548;2023-04-08T01:44:00;12.60;;;8.07;;
72864;SDS011;61000;48.120;11.548;2023-04-08T01:46:28;13.85;;;8.00;;
72864;SDS011;61000;48.120;11.548;2023-04-08T01:48:56;10.45;;;7.75;;
72864;SDS011;61000;48.120;11.548;2023-04-08T01:51:25;11.85;;;7.70;;
72864;SDS011;61000;48.120;11.548;2023-04-08T01:53:55;12.93;;;7.85;;
72864;SDS011;61000;48.120;11.548;2023-04-08T01:56:22;13.27;;;8.32;;
72864;SDS011;61000;48.120;11.548;2023-04-08T01:58:51;9.50;;;7.75;;
72864;SDS011;61000;48.120;11.548;2023-04-08T02:01:22;9.63;;;7.57;;
72864;SDS011;61000;48.120;11.548;2023-04-08T02:03:52;11.50;;;7.80;;
72864;SDS011;61000;48.120;11.548;2023-04-08T02:06:22;11.13;;;8.10;;
72864;SDS011;61000;48.120;11.548;2023-04-08T02:08:49;11.10;;;8.15;;
72864;SDS011;61000;48.120;11.548;2023-04-08T02:11:19;13.02;;;8.27;;
72864;SDS011;61000;48.120;11.548;2023-04-08T02:13:46;12.45;;;8.65;;
72864;SDS011;61000;48.120;11.548;2023-04-08T02:16:15;12.32;;;8.27;;
72864;SDS011;61000;48.120;11.548;2023-04-08T02:18:48;11.20;;;8.30;;
72864;SDS011;61000;48.120;11.548;2023-04-08T02:21:19;10.55;;;7.60;;
72864;SDS011;61000;48.120;11.548;2023-04-08T02:23:52;14.55;;;8.45;;
72864;SDS011;61000;48.120;11.548;2023-04-08T02:26:20;11.10;;;8.13;;
72864;SDS011;61000;48.120;11.548;2023-04-08T02:28:47;13.85;;;8.02;;
72864;SDS011;61000;48.120;11.548;2023-04-08T02:31:15;12.25;;;8.13;;
72864;SDS011;61000;48.120;11.548;2023-04-08T02:33:43;16.20;;;9.35;;
72864;SDS011;61000;48.120;11.548;2023-04-08T02:36:13;12.25;;;7.90;;
72864;SDS011;61000;48.120;11.548;2023-04-08T02:38:41;10.15;;;8.38;;
72864;SDS011;61000;48.120;11.548;2023-04-08T02:41:07;13.40;;;8.93;;
72864;SDS011;61000;48.120;11.548;2023-04-08T02:43:35;11.80;;;8.05;;
72864;SDS011;61000;48.120;11.548;2023-04-08T02:46:04;11.52;;;7.72;;
72864;SDS011;61000;48.120;11.548;2023-04-08T02:48:31;12.15;;;8.57;;
72864;SDS011;61000;48.120;11.548;2023-04-08T02:50:58;10.82;;;8.40;;
72864;SDS011;61000;48.120;11.548;2023-04-08T02:53:26;11.63;;;8.63;;
72864;SDS011;61000;48.120;11.548;2023-04-08T02:55:53;11.32;;;8.00;;
72864;SDS011;61000;48.120;11.548;2023-04-08T02:58:20;13.50;;;9.05;;
72864;SDS011;61000;48.120;11.548;2023-04-08T03:00:47;13.00;;;8.50;;
72864;SDS011;61000;48.120;11.548;2023-04-08T03:03:14;12.30;;;9.23;;
72864;SDS011;61000;48.120;11.548;2023-04-08T03:05:41;10.93;;;8.20;;
72864;SDS011;61000;48.120;11.548;2023-04-08T03:08:08;12.43;;;8.77;;
72864;SDS011;61000;48.120;11.548;2023-04-08T03:10:36;12.90;;;9.23;;
72864;SDS011;61000;48.120;11.548;2023-04-08T03:13:03;13.50;;;9.65;;
72864;SDS011;61000;48.120;11.548;2023-04-08T03:15:30;12.23;;;8.25;;
72864;SDS011;61000;48.120;11.548;2023-04-08T03:17:56;13.48;;;8.95;;
72864;SDS011;61000;48.120;11.548;2023-04-08T03:20:23;13.90;;;9.32;;
72864;SDS011;61000;48.120;11.548;2023-04-08T03:22:51;13.30;;;8.90;;
72864;SDS011;61000;48.120;11.548;2023-04-08T03:25:18;14.73;;;9.35;;
72864;SDS011;61000;48.120;11.548;2023-04-08T03:27:46;14.77;;;8.88;;
72864;SDS011;61000;48.120;11.548;2023-04-08T03:30:13;11.98;;;8.82;;
72864;SDS011;61000;48.120;11.548;2023-04-08T03:32:40;13.32;;;9.40;;
72864;SDS011;61000;48.120;11.548;2023-04-08T03:35:07;16.77;;;9.93;;
72864;SDS011;61000;48.120;11.548;2023-04-08T03:37:34;12.98;;;9.80;;
72864;SDS011;61000;48.120;11.548;2023-04-08T03:40:01;12.55;;;9.93;;
72864;SDS011;61000;48.120;11.548;2023-04-08T03:42:28;13.65;;;10.13;;
72864;SDS011;61000;48.120;11.548;2023-04-08T03:44:57;14.45;;;10.20;;
72864;SDS011;61000;48.120;11.548;2023-04-08T03:47:24;13.27;;;9.82;;
72864;SDS011;61000;48.120;11.548;2023-04-08T03:49:51;14.40;;;10.07;;
72864;SDS011;61000;48.120;11.548;2023-04-08T03:52:18;13.35;;;10.02;;
72864;SDS011;61000;48.120;11.548;2023-04-08T03:54:45;13.38;;;10.05;;
72864;SDS011;61000;48.120;11.548;2023-04-08T03:57:12;13.70;;;9.82;;
72864;SDS011;61000;48.120;11.548;2023-04-08T03:59:40;14.57;;;10.00;;
72864;SDS011;61000;48.120;11.548;2023-04-08T04:02:08;15.82;;;10.27;;
72864;SDS011;61000;48.120;11.548;2023-04-08T04:04:35;15.60;;;10.32;;
72864;SDS011;61000;48.120;11.548;2023-04-08T04:07:02;16.70;;;10.73;;
72864;SDS011;61000;48.120;11.548;2023-04-08T04:09:28;14.05;;;10.40;;
72864;SDS011;61000;48.120;11.548;2023-04-08T04:11:55;17.05;;;10.65;;
72864;SDS011;61000;48.120;11.548;2023-04-08T04:14:22;16.27;;;11.13;;
72864;SDS011;61000;48.120;11.548;2023-04-08T04:16:49;17.77;;;10.20;;
72864;SDS011;61000;48.120;11.548;2023-04-08T04:19:17;17.60;;;11.10;;
72864;SDS011;61000;48.120;11.548;2023-04-08T04:21:44;15.10;;;10.77;;
72864;SDS011;61000;48.120;11.548;2023-04-08T04:24:11;15.07;;;10.30;;
72864;SDS011;61000;48.120;11.548;2023-04-08T04:26:39;15.55;;;11.00;;
72864;SDS011;61000;48.120;11.548;2023-04-08T04:29:06;17.23;;;11.75;;
72864;SDS011;61000;48.120;11.548;2023-04-08T04:31:32;16.38;;;11.00;;
72864;SDS011;61000;48.120;11.548;2023-04-08T04:33:59;18.73;;;10.93;;
72864;SDS011;61000;48.120;11.548;2023-04-08T04:36:27;17.33;;;10.32;;
72864;SDS011;61000;48.120;11.548;2023-04-08T04:38:55;17.77;;;11.20;;
72864;SDS011;61000;48.120;11.548;2023-04-08T04:41:22;18.00;;;11.57;;
72864;SDS011;61000;48.120;11.548;2023-04-08T04:43:49;18.30;;;11.40;;
72864;SDS011;61000;48.120;11.548;2023-04-08T04:46:16;19.73;;;10.98;;
72864;SDS011;61000;48.120;11.548;2023-04-08T04:48:43;17.63;;;11.63;;
72864;SDS011;61000;48.120;11.548;2023-04-08T04:51:10;18.80;;;12.10;;
72864;SDS011;61000;48.120;11.548;2023-04-08T04:53:38;16.90;;;11.32;;
72864;SDS011;61000;48.120;11.548;2023-04-08T04:56:05;17.15;;;11.73;;
72864;SDS011;61000;48.120;11.548;2023-04-08T04:58:32;19.00;;;12.32;;
72864;SDS011;61000;48.120;11.548;2023-04-08T05:00:59;20.20;;;12.25;;
72864;SDS011;61000;48.120;11.548;2023-04-08T05:03:26;21.17;;;11.90;;
72864;SDS011;61000;48.120;11.548;2023-04-08T05:05:53;17.88;;;11.73;;
72864;SDS011;61000;48.120;11.548;2023-04-08T05:08:20;21.10;;;12.65;;
72864;SDS011;61000;48.120;11.548;2023-04-08T05:10:48;20.70;;;13.15;;
72864;SDS011;61000;48.120;11.548;2023-04-08T05:13:15;17.85;;;12.23;;
72864;SDS011;61000;48.120;11.548;2023-04-08T05:15:42;18.92;;;12.70;;
72864;SDS011;61000;48.120;11.548;2023-04-08T05:18:10;20.25;;;12.25;;
72864;SDS011;61000;48.120;11.548;2023-04-08T05:20:37;22.27;;;13.52;;
72864;SDS011;61000;48.120;11.548;2023-04-08T05:23:04;25.98;;;14.73;;
72864;SDS011;61000;48.120;11.548;2023-04-08T05:25:31;19.05;;;12.35;;
72864;SDS011;61000;48.120;11.548;2023-04-08T05:28:00;21.48;;;13.20;;
72864;SDS011;61000;48.120;11.548;2023-04-08T05:30:27;21.88;;;12.90;;
72864;SDS011;61000;48.120;11.548;2023-04-08T05:32:53;22.48;;;14.20;;
72864;SDS011;61000;48.120;11.548;2023-04-08T05:35:20;23.77;;;13.32;;
72864;SDS011;61000;48.120;11.548;2023-04-08T05:37:47;19.05;;;13.13;;
72864;SDS011;61000;48.120;11.548;2023-04-08T05:40:14;22.27;;;13.82;;
72864;SDS011;61000;48.120;11.548;2023-04-08T05:42:41;22.58;;;13.60;;
72864;SDS011;61000;48.120;11.548;2023-04-08T05:45:10;20.98;;;12.85;;
72864;SDS011;61000;48.120;11.548;2023-04-08T05:47:36;20.42;;;13.48;;
72864;SDS011;61000;48.120;11.548;2023-04-08T05:50:04;20.98;;;13.20;;
72864;SDS011;61000;48.120;11.548;2023-04-08T05:52:31;20.13;;;13.10;;
72864;SDS011;61000;48.120;11.548;2023-04-08T05:54:58;18.60;;;13.30;;
72864;SDS011;61000;48.120;11.548;2023-04-08T05:57:25;18.95;;;12.75;;
72864;SDS011;61000;48.120;11.548;2023-04-08T05:59:52;21.60;;;12.32;;
72864;SDS011;61000;48.120;11.548;2023-04-08T06:02:20;19.48;;;12.52;;
72864;SDS011;61000;48.120;11.548;2023-04-08T06:04:47;19.20;;;12.75;;
72864;SDS011;61000;48.120;11.548;2023-04-08T06:07:14;20.55;;;13.52;;
72864;SDS011;61000;48.120;11.548;2023-04-08T06:09:41;17.10;;;12.32;;
72864;SDS011;61000;48.120;11.548;2023-04-08T06:12:08;19.25;;;12.55;;
72864;SDS011;61000;48.120;11.548;2023-04-08T06:14:35;16.27;;;11.75;;
72864;SDS011;61000;48.120;11.548;2023-04-08T06:17:03;19.85;;;12.68;;
72864;SDS011;61000;48.120;11.548;2023-04-08T06:19:31;19.67;;;11.82;;
72864;SDS011;61000;48.120;11.548;2023-04-08T06:21:58;17.90;;;11.80;;
72864;SDS011;61000;48.120;11.548;2023-04-08T06:24:25;16.67;;;11.43;;
72864;SDS011;61000;48.120;11.548;2023-04-08T06:26:53;18.15;;;12.27;;
72864;SDS011;61000;48.120;11.548;2023-04-08T06:29:21;17.48;;;11.85;;
72864;SDS011;61000;48.120;11.548;2023-04-08T06:31:48;16.98;;;11.20;;
72864;SDS011;61000;48.120;11.548;2023-04-08T06:34:15;19.60;;;12.10;;
72864;SDS011;61000;48.120;11.548;2023-04-08T06:36:43;17.27;;;12.07;;
72864;SDS011;61000;48.120;11.548;2023-04-08T06:39:10;16.88;;;11.15;;
72864;SDS011;61000;48.120;11.548;2023-04-08T06:41:37;18.70;;;12.52;;
72864;SDS011;61000;48.120;11.548;2023-04-08T06:44:18;18.60;;;12.73;;
72864;SDS011;61000;48.120;11.548;2023-04-08T06:46:45;18.30;;;13.35;;
72864;SDS011;61000;48.120;11.548;2023-04-08T06:49:11;19.00;;;12.35;;
72864;SDS011;61000;48.120;11.548;2023-04-08T06:51:38;18.33;;;12.43;;
72864;SDS011;61000;48.120;11.548;2023-04-08T06:54:06;19.30;;;12.88;;
72864;SDS011;61000;48.120;11.548;2023-04-08T06:56:34;19.65;;;13.68;;
72864;SDS011;61000;48.120;11.548;2023-04-08T06:59:01;22.30;;;13.77;;
72864;SDS011;61000;48.120;11.548;2023-04-08T07:01:28;21.30;;;14.00;;
72864;SDS011;61000;48.120;11.548;2023-04-08T07:03:56;19.83;;;14.05;;
72864;SDS011;61000;48.120;11.548;2023-04-08T07:06:22;20.50;;;13.95;;
72864;SDS011;61000;48.120;11.548;2023-04-08T07:08:50;18.88;;;13.25;;
72864;SDS011;61000;48.120;11.548;2023-04-08T07:11:18;21.80;;;13.63;;
72864;SDS011;61000;48.120;11.548;2023-04-08T07:13:46;21.45;;;13.93;;
72864;SDS011;61000;48.120;11.548;2023-04-08T07:16:13;23.92;;;13.80;;
72864;SDS011;61000;48.120;11.548;2023-04-08T07:18:39;20.15;;;14.23;;
72864;SDS011;61000;48.120;11.548;2023-04-08T07:21:07;21.20;;;13.85;;
72864;SDS011;61000;48.120;11.548;2023-04-08T07:23:34;21.77;;;13.77;;
72864;SDS011;61000;48.120;11.548;2023-04-08T07:26:01;19.00;;;13.35;;
72864;SDS011;61000;48.120;11.548;2023-04-08T07:28:30;22.35;;;14.30;;
72864;SDS011;61000;48.120;11.548;2023-04-08T07:31:07;18.27;;;13.15;;
72864;SDS011;61000;48.120;11.548;2023-04-08T07:33:37;19.60;;;13.98;;
72864;SDS011;61000;48.120;11.548;2023-04-08T07:36:04;19.77;;;13.88;;
72864;SDS011;61000;48.120;11.548;2023-04-08T07:38:31;22.83;;;15.02;;
72864;SDS011;61000;48.120;11.548;2023-04-08T07:40:58;18.98;;;13.00;;
72864;SDS011;61000;48.120;11.548;2023-04-08T07:43:25;22.70;;;14.23;;
72864;SDS011;61000;48.120;11.548;2023-04-08T07:45:55;11.55;;;8.05;;
72864;SDS011;61000;48.120;11.548;2023-04-08T07:48:26;23.23;;;14.45;;
72864;SDS011;61000;48.120;11.548;2023-04-08T07:50:54;18.20;;;12.80;;
72864;SDS011;61000;48.120;11.548;2023-04-08T07:53:21;19.60;;;13.30;;
72864;SDS011;61000;48.120;11.548;2023-04-08T07:55:48;19.13;;;12.85;;
72864;SDS011;61000;48.120;11.548;2023-04-08T07:58:15;18.40;;;12.65;;
72864;SDS011;61000;48.120;11.548;2023-04-08T08:00:42;18.42;;;11.85;;
72864;SDS011;61000;48.120;11.548;2023-04-08T08:03:10;17.83;;;12.13;;
72864;SDS011;61000;48.120;11.548;2023-04-08T08:05:37;18.25;;;12.50;;
72864;SDS011;61000;48.120;11.548;2023-04-08T08:08:04;15.65;;;10.95;;
72864;SDS011;61000;48.120;11.548;2023-04-08T08:10:32;18.10;;;11.25;;
72864;SDS011;61000;48.120;11.548;2023-04-08T08:12:59;14.55;;;10.60;;
72864;SDS011;61000;48.120;11.548;2023-04-08T08:15:26;15.75;;;10.85;;
72864;SDS011;61000;48.120;11.548;2023-04-08T08:17:53;12.85;;;10.05;;
72864;SDS011;61000;48.120;11.548;2023-04-08T08:20:21;15.00;;;10.68;;
72864;SDS011;61000;48.120;11.548;2023-04-08T08:22:48;16.10;;;11.18;;
72864;SDS011;61000;48.120;11.548;2023-04-08T08:25:15;13.90;;;10.73;;
72864;SDS011;61000;48.120;11.548;2023-04-08T08:27:42;15.32;;;11.85;;
72864;SDS011;61000;48.120;11.548;2023-04-08T08:30:10;17.00;;;11.20;;
72864;SDS011;61000;48.120;11.548;2023-04-08T08:32:37;16.73;;;11.73;;
72864;SDS011;61000;48.120;11.548;2023-04-08T08:35:04;16.13;;;11.40;;
72864;SDS011;61000;48.120;11.548;2023-04-08T08:37:33;21.55;;;12.07;;
72864;SDS011;61000;48.120;11.548;2023-04-08T08:40:00;17.55;;;12.95;;
72864;SDS011;61000;48.120;11.548;2023-04-08T08:42:27;16.45;;;11.85;;
72864;SDS011;61000;48.120;11.548;2023-04-08T08:44:54;16.15;;;11.43;;
72864;SDS011;61000;48.120;11.548;2023-04-08T08:47:21;15.77;;;11.65;;
72864;SDS011;61000;48.120;11.548;2023-04-08T08:49:51;16.40;;;10.90;;
72864;SDS011;61000;48.120;11.548;2023-04-08T08:52:18;19.25;;;12.60;;
72864;SDS011;61000;48.120;11.548;2023-04-08T08:54:47;18.13;;;12.00;;
72864;SDS011;61000;48.120;11.548;2023-04-08T08:57:17;17.52;;;12.85;;
72864;SDS011;61000;48.120;11.548;2023-04-08T08:59:44;18.60;;;11.93;;
72864;SDS011;61000;48.120;11.548;2023-04-08T09:02:22;16.83;;;11.77;;
72864;SDS011;61000;48.120;11.548;2023-04-08T09:04:58;19.05;;;12.75;;
72864;SDS011;61000;48.120;11.548;2023-04-08T09:07:27;18.88;;;13.20;;
72864;SDS011;61000;48.120;11.548;2023-04-08T09:09:56;20.63;;;14.18;;
72864;SDS011;61000;48.120;11.548;2023-04-08T09:12:24;19.02;;;12.63;;
72864;SDS011;61000;48.120;11.548;2023-04-08T09:15:02;21.85;;;13.70;;
72864;SDS011;61000;48.120;11.548;2023-04-08T09:17:30;18.30;;;13.48;;
72864;SDS011;61000;48.120;11.548;2023-04-08T09:20:05;18.15;;;13.25;;
72864;SDS011;61000;48.120;11.548;2023-04-08T09:22:54;19.08;;;13.32;;
72864;SDS011;61000;48.120;11.548;2023-04-08T09:25:24;18.58;;;13.27;;
72864;SDS011;61000;48.120;11.548;2023-04-08T09:27:52;23.33;;;14.20;;
72864;SDS011;61000;48.120;11.548;2023-04-08T09:30:20;16.15;;;11.15;;
72864;SDS011;61000;48.120;11.548;2023-04-08T09:32:49;17.42;;;13.77;;
72864;SDS011;61000;48.120;11.548;2023-04-08T09:35:17;19.45;;;13.60;;
72864;SDS011;61000;48.120;11.548;2023-04-08T09:37:44;20.00;;;13.35;;
72864;SDS011;61000;48.120;11.548;2023-04-08T09:40:12;18.98;;;12.70;;
72864;SDS011;61000;48.120;11.548;2023-04-08T09:42:44;19.83;;;13.23;;
72864;SDS011;61000;48.120;11.548;2023-04-08T09:45:15;17.60;;;12.40;;
72864;SDS011;61000;48.120;11.548;2023-04-08T09:47:51;18.95;;;12.90;;
72864;SDS011;61000;48.120;11.548;2023-04-08T09:50:23;15.68;;;11.90;;
72864;SDS011;61000;48.120;11.548;2023-04-08T09:52:56;16.50;;;11.80;;
72864;SDS011;61000;48.120;11.548;2023-04-08T09:55:28;19.27;;;11.70;;
72864;SDS011;61000;48.120;11.548;2023-04-08T09:58:00;16.08;;;12.45;;
72864;SDS011;61000;48.120;11.548;2023-04-08T10:00:31;16.85;;;11.43;;
72864;SDS011;61000;48.120;11.548;2023-04-08T10:03:05;17.60;;;12.68;;
72864;SDS011;61000;48.120;11.548;2023-04-08T10:05:39;16.17;;;12.63;;
72864;SDS011;61000;48.120;11.548;2023-04-08T10:08:08;21.05;;;12.80;;
72864;SDS011;61000;48.120;11.548;2023-04-08T10:10:37;15.93;;;12.60;;
72864;SDS011;61000;48.120;11.548;2023-04-08T10:13:07;18.40;;;12.27;;
72864;SDS011;61000;48.120;11.548;2023-04-08T10:15:34;17.23;;;12.63;;
72864;SDS011;61000;48.120;11.548;2023-04-08T10:20:56;21.05;;;13.77;;
72864;SDS011;61000;48.120;11.548;2023-04-08T10:26:30;17.52;;;12.82;;
72864;SDS011;61000;48.120;11.548;2023-04-08T10:31:58;17.70;;;13.43;;
72864;SDS011;61000;48.120;11.548;2023-04-08T10:34:26;18.02;;;12.73;;
72864;SDS011;61000;48.120;11.548;2023-04-08T10:36:54;17.42;;;12.50;;
72864;SDS011;61000;48.120;11.548;2023-04-08T10:39:23;16.85;;;12.35;;
72864;SDS011;61000;48.120;11.548;2023-04-08T10:41:51;16.92;;;13.13;;
72864;SDS011;61000;48.120;11.548;2023-04-08T10:44:18;20.13;;;13.50;;
72864;SDS011;61000;48.120;11.548;2023-04-08T10:46:48;18.42;;;13.30;;
72864;SDS011;61000;48.120;11.548;2023-04-08T10:49:16;18.25;;;13.45;;
72864;SDS011;61000;48.120;11.548;2023-04-08T10:51:43;19.05;;;14.57;;
72864;SDS011;61000;48.120;11.548;2023-04-08T10:54:12;17.27;;;12.93;;
72864;SDS011;61000;48.120;11.548;2023-04-08T10:56:44;18.77;;;14.10;;
72864;SDS011;61000;48.120;11.548;2023-04-08T10:59:13;17.25;;;13.05;;
72864;SDS011;61000;48.120;11.548;2023-04-08T11:01:42;18.13;;;12.95;;
72864;SDS011;61000;48.120;11.548;2023-04-08T11:04:13;20.42;;;13.85;;
72864;SDS011;61000;48.120;11.548;2023-04-08T11:06:44;18.48;;;14.68;;
72864;SDS011;61000;48.120;11.548;2023-04-08T11:09:12;20.52;;;14.02;;
72864;SDS011;61000;48.120;11.548;2023-04-08T11:11:41;18.35;;;14.35;;
72864;SDS011;61000;48.120;11.548;2023-04-08T11:14:08;18.75;;;14.40;;
72864;SDS011;61000;48.120;11.548;2023-04-08T11:16:36;19.63;;;14.85;;
72864;SDS011;61000;48.120;11.548;2023-04-08T11:19:03;17.63;;;13.77;;
72864;SDS011;61000;48.120;11.548;2023-04-08T11:21:32;20.10;;;14.60;;
72864;SDS011;61000;48.120;11.548;2023-04-08T11:24:05;20.90;;;14.35;;
72864;SDS011;61000;48.120;11.548;2023-04-08T11:26:34;20.20;;;13.93;;
72864;SDS011;61000;48.120;11.548;2023-04-08T11:29:02;20.20;;;14.35;;
72864;SDS011;61000;48.120;11.548;2023-04-08T11:31:30;21.60;;;15.45;;
72864;SDS011;61000;48.120;11.548;2023-04-08T11:33:58;18.95;;;14.07;;
72864;SDS011;61000;48.120;11.548;2023-04-08T11:36:27;21.23;;;15.02;;
72864;SDS011;61000;48.120;11.548;2023-04-08T11:38:56;23.45;;;15.05;;
72864;SDS011;61000;48.120;11.548;2023-04-08T11:41:23;21.75;;;15.32;;
72864;SDS011;61000;48.120;11.548;2023-04-08T11:43:51;21.83;;;15.45;;
72864;SDS011;61000;48.120;11.548;2023-04-08T11:46:19;19.67;;;13.70;;
72864;SDS011;61000;48.120;11.548;2023-04-08T11:51:34;23.05;;;14.70;;
72864;SDS011;61000;48.120;11.548;2023-04-08T11:54:27;19.38;;;13.13;;
72864;SDS011;61000;48.120;11.548;2023-04-08T11:56:54;21.38;;;14.98;;
72864;SDS011;61000;48.120;11.548;2023-04-08T11:59:22;19.73;;;14.30;;
72864;SDS011;61000;48.120;11.548;2023-04-08T12:01:50;19.45;;;14.30;;
72864;SDS011;61000;48.120;11.548;2023-04-08T12:04:17;20.45;;;13.57;;
72864;SDS011;61000;48.120;11.548;2023-04-08T12:06:44;21.15;;;15.20;;
72864;SDS011;61000;48.120;11.548;2023-04-08T12:09:11;18.58;;;14.85;;
72864;SDS011;61000;48.120;11.548;2023-04-08T12:11:40;20.98;;;16.27;;
72864;SDS011;61000;48.120;11.548;2023-04-08T12:14:07;20.23;;;14.57;;
72864;SDS011;61000;48.120;11.548;2023-04-08T12:16:34;22.42;;;15.38;;
72864;SDS011;61000;48.120;11.548;2023-04-08T12:19:01;23.15;;;15.70;;
72864;SDS011;61000;48.120;11.548;2023-04-08T12:21:28;20.38;;;14.98;;
72864;SDS011;61000;48.120;11.548;2023-04-08T12:23:56;22.70;;;15.60;;
72864;SDS011;61000;48.120;11.548;2023-04-08T12:26:23;24.13;;;15.05;;
72864;SDS011;61000;48.120;11.548;2023-04-08T12:28:52;21.25;;;15.32;;
72864;SDS011;61000;48.120;11.548;2023-04-08T12:31:19;20.08;;;14.75;;
72864;SDS011;61000;48.120;11.548;2023-04-08T12:33:47;21.77;;;14.30;;
72864;SDS011;61000;48.120;11.548;2023-04-08T12:36:14;24.42;;;13.93;;
72864;SDS011;61000;48.120;11.548;2023-04-08T12:38:41;18.10;;;13.98;;
72864;SDS011;61000;48.120;11.548;2023-04-08T12:41:08;20.75;;;13.73;;
72864;SDS011;61000;48.120;11.548;2023-04-08T12:43:35;18.85;;;13.70;;
72864;SDS011;61000;48.120;11.548;2023-04-08T12:46:04;18.17;;;13.38;;
72864;SDS011;61000;48.120;11.548;2023-04-08T12:48:31;18.08;;;12.90;;
72864;SDS011;61000;48.120;11.548;2023-04-08T12:50:58;16.67;;;11.80;;
72864;SDS011;61000;48.120;11.548;2023-04-08T12:53:25;17.13;;;12.00;;
72864;SDS011;61000;48.120;11.548;2023-04-08T12:55:52;15.57;;;11.75;;
72864;SDS011;61000;48.120;11.548;2023-04-08T12:58:21;15.85;;;12.80;;
72864;SDS011;61000;48.120;11.548;2023-04-08T13:00:49;20.75;;;14.23;;
72864;SDS011;61000;48.120;11.548;2023-04-08T13:03:17;15.93;;;12.10;;
72864;SDS011;61000;48.120;11.548;2023-04-08T13:05:44;17.48;;;12.48;;
72864;SDS011;61000;48.120;11.548;2023-04-08T13:08:11;16.27;;;11.38;;
72864;SDS011;61000;48.120;11.548;2023-04-08T13:10:37;15.10;;;11.95;;
72864;SDS011;61000;48.120;11.548;2023-04-08T13:13:04;14.95;;;11.30;;
72864;SDS011;61000;48.120;11.548;2023-04-08T13:15:32;16.80;;;12.18;;
72864;SDS011;61000;48.120;11.548;2023-04-08T13:17:59;17.27;;;12.55;;
72864;SDS011;61000;48.120;11.548;2023-04-08T13:20:27;16.55;;;12.15;;
72864;SDS011;61000;48.120;11.548;2023-04-08T13:22:54;19.92;;;13.30;;
72864;SDS011;61000;48.120;11.548;2023-04-08T13:25:21;17.92;;;12.57;;
72864;SDS011;61000;48.120;11.548;2023-04-08T13:27:48;17.25;;;12.73;;
72864;SDS011;61000;48.120;11.548;2023-04-08T13:30:15;17.48;;;13.05;;
72864;SDS011;61000;48.120;11.548;2023-04-08T13:32:42;18.40;;;12.23;;
72864;SDS011;61000;48.120;11.548;2023-04-08T13:35:09;16.75;;;12.02;;
72864;SDS011;61000;48.120;11.548;2023-04-08T13:37:37;15.75;;;11.00;;
72864;SDS011;61000;48.120;11.548;2023-04-08T13:40:05;17.50;;;11.52;;
72864;SDS011;61000;48.120;11.548;2023-04-08T13:42:32;17.00;;;11.07;;
72864;SDS011;61000;48.120;11.548;2023-04-08T13:45:00;14.82;;;10.52;;
72864;SDS011;61000;48.120;11.548;2023-04-08T13:47:26;17.20;;;11.57;;
72864;SDS011;61000;48.120;11.548;2023-04-08T13:49:53;16.67;;;11.75;;
72864;SDS011;61000;48.120;11.548;2023-04-08T13:52:20;14.18;;;11.05;;
72864;SDS011;61000;48.120;11.548;2023-04-08T13:54:49;14.73;;;10.82;;
72864;SDS011;61000;48.120;11.548;2023-04-08T13:57:15;17.67;;;10.75;;
72864;SDS011;61000;48.120;11.548;2023-04-08T13:59:42;18.48;;;12.57;;
72864;SDS011;61000;48.120;11.548;2023-04-08T14:02:09;14.07;;;11.00;;
72864;SDS011;61000;48.120;11.548;2023-04-08T14:04:36;17.90;;;11.70;;
72864;SDS011;61000;48.120;11.548;2023-04-08T14:07:03;17.20;;;12.40;;
72864;SDS011;61000;48.120;11.548;2023-04-08T14:09:30;16.95;;;12.40;;
72864;SDS011;61000;48.120;11.548;2023-04-08T14:11:59;14.77;;;11.13;;
72864;SDS011;61000;48.120;11.548;2023-04-08T14:14:25;16.08;;;12.13;;
72864;SDS011;61000;48.120;11.548;2023-04-08T14:16:52;17.70;;;12.52;;
72864;SDS011;61000;48.120;11.548;2023-04-08T14:19:19;16.75;;;10.90;;
72864;SDS011;61000;48.120;11.548;2023-04-08T14:21:46;14.50;;;11.13;;
72864;SDS011;61000;48.120;11.548;2023-04-08T14:24:13;17.58;;;11.45;;
72864;SDS011;61000;48.120;11.548;2023-04-08T14:26:40;15.80;;;11.73;;
72864;SDS011;61000;48.120;11.548;2023-04-08T14:29:08;15.80;;;11.98;;
72864;SDS011;61000;48.120;11.548;2023-04-08T14:31:35;17.27;;;12.07;;